createdAt,value
2018-12-31T00:00:48.995Z,89.11
2018-12-31T00:03:31.898Z,89.11
2018-12-31T00:06:02.636Z,89.09
2018-12-31T00:08:33.506Z,89.09
2018-12-31T00:11:05.894Z,89.12
2018-12-31T00:13:39.800Z,89.11
2018-12-31T00:16:10.976Z,89.12
2018-12-31T00:18:44.806Z,89.07
2018-12-31T00:21:15.921Z,89.13
2018-12-31T00:23:46.639Z,89.15
2018-12-31T00:26:24.498Z,89.17
2018-12-31T00:28:55.587Z,89.18
2018-12-31T00:31:29.001Z,89.19
2018-12-31T00:33:59.724Z,89.19
2018-12-31T00:36:30.914Z,89.18
2018-12-31T00:39:04.147Z,89.19
2018-12-31T00:41:34.791Z,89.21
2018-12-31T00:44:05.497Z,89.21
2018-12-31T00:46:38.824Z,89.21
2018-12-31T00:49:10.375Z,89.20
2018-12-31T00:51:45.058Z,89.21
2018-12-31T00:54:15.874Z,89.22
2018-12-31T00:56:47.414Z,89.22
2018-12-31T00:59:18.915Z,89.22
2018-12-31T01:01:49.652Z,89.20
2018-12-31T01:04:20.541Z,89.21
2018-12-31T01:06:54.635Z,89.24
2018-12-31T01:09:27.004Z,89.21
2018-12-31T01:11:58.633Z,89.24
2018-12-31T01:14:29.334Z,89.25
2018-12-31T01:17:00.379Z,89.24
2018-12-31T01:19:31.184Z,89.25
2018-12-31T01:22:01.231Z,89.26
2018-12-31T01:24:32.074Z,89.27
2018-12-31T01:27:02.982Z,89.26
2018-12-31T01:29:34.269Z,89.27
2018-12-31T01:32:07.413Z,89.25
2018-12-31T01:34:44.310Z,89.28
2018-12-31T01:37:19.078Z,89.29
2018-12-31T01:39:53.569Z,89.29
2018-12-31T01:42:25.385Z,89.27
2018-12-31T01:44:56.159Z,89.27
2018-12-31T01:47:33.227Z,89.20
2018-12-31T01:50:07.554Z,89.27
2018-12-31T01:52:38.869Z,89.27
2018-12-31T01:55:09.926Z,89.25
2018-12-31T01:57:40.877Z,89.25
2018-12-31T02:00:11.628Z,89.24
2018-12-31T02:02:43.861Z,89.23
2018-12-31T02:05:15.364Z,89.18
2018-12-31T02:07:48.580Z,89.20
2018-12-31T02:10:20.075Z,89.13
2018-12-31T02:12:53.615Z,89.21
2018-12-31T02:15:24.441Z,89.17
2018-12-31T02:17:57.711Z,89.19
2018-12-31T02:20:31.505Z,89.20
2018-12-31T02:23:02.145Z,89.17
2018-12-31T02:25:32.765Z,89.15
2018-12-31T02:28:06.680Z,89.16
2018-12-31T02:30:37.318Z,89.13
2018-12-31T02:33:10.810Z,89.09
2018-12-31T02:35:42.099Z,89.09
2018-12-31T02:38:13.302Z,89.06
2018-12-31T02:40:44.390Z,88.98
2018-12-31T02:43:15.574Z,89.06
2018-12-31T02:45:46.467Z,89.07
2018-12-31T02:48:17.141Z,89.06
2018-12-31T02:50:49.472Z,88.98
2018-12-31T02:53:20.697Z,89.00
2018-12-31T02:55:52.406Z,89.01
2018-12-31T02:58:23.635Z,88.97
2018-12-31T03:00:54.360Z,88.96
2018-12-31T03:03:25.191Z,88.98
2018-12-31T03:06:00.852Z,88.96
2018-12-31T03:08:31.489Z,88.95
2018-12-31T03:11:02.241Z,88.95
2018-12-31T03:13:35.124Z,88.94
2018-12-31T03:16:05.872Z,88.91
2018-12-31T03:18:40.575Z,88.90
2018-12-31T03:21:12.230Z,88.88
2018-12-31T03:23:44.517Z,88.84
2018-12-31T03:26:18.545Z,88.84
2018-12-31T03:28:49.505Z,88.77
2018-12-31T03:31:25.816Z,88.85
2018-12-31T03:33:55.308Z,88.85
2018-12-31T03:36:31.475Z,88.81
2018-12-31T03:39:02.236Z,88.81
2018-12-31T03:41:35.171Z,88.78
2018-12-31T03:44:06.527Z,88.75
2018-12-31T03:46:42.296Z,88.76
2018-12-31T03:49:23.544Z,88.75
2018-12-31T03:51:55.961Z,88.73
2018-12-31T03:54:26.604Z,88.71
2018-12-31T03:57:01.671Z,88.69
2018-12-31T03:59:33.736Z,88.69
2018-12-31T04:02:04.839Z,88.70
2018-12-31T04:04:35.988Z,88.69
2018-12-31T04:07:10.089Z,88.69
2018-12-31T04:09:41.106Z,88.67
2018-12-31T04:12:13.663Z,88.65
2018-12-31T04:14:49.050Z,88.62
2018-12-31T04:17:19.846Z,88.63
2018-12-31T04:19:50.328Z,88.63
2018-12-31T04:22:22.787Z,88.60
2018-12-31T04:24:57.119Z,88.62
2018-12-31T04:27:28.121Z,88.60
2018-12-31T04:30:00.777Z,88.58
2018-12-31T04:32:31.261Z,88.60
2018-12-31T04:35:01.748Z,88.62
2018-12-31T04:37:32.575Z,88.61
2018-12-31T04:40:03.225Z,88.59
2018-12-31T04:42:34.703Z,88.61
2018-12-31T04:45:09.395Z,88.65
2018-12-31T04:47:40.836Z,88.65
2018-12-31T04:50:14.967Z,88.65
2018-12-31T04:52:45.903Z,88.66
2018-12-31T04:55:16.947Z,88.63
2018-12-31T04:57:51.293Z,88.61
2018-12-31T05:00:21.993Z,88.58
2018-12-31T05:02:54.579Z,88.56
2018-12-31T05:05:25.544Z,88.54
2018-12-31T05:07:56.775Z,88.53
2018-12-31T05:10:29.900Z,88.52
2018-12-31T05:13:01.508Z,88.49
2018-12-31T05:15:32.282Z,88.49
2018-12-31T05:18:03.337Z,88.46
2018-12-31T05:20:34.112Z,88.47
2018-12-31T05:23:05.432Z,88.50
2018-12-31T05:25:37.158Z,88.49
2018-12-31T05:28:08.816Z,88.51
2018-12-31T05:30:39.549Z,88.47
2018-12-31T05:33:10.706Z,88.50
2018-12-31T05:35:43.168Z,88.49
2018-12-31T05:38:15.552Z,88.50
2018-12-31T05:40:47.603Z,88.48
2018-12-31T05:43:18.623Z,88.43
2018-12-31T05:45:49.759Z,88.43
2018-12-31T05:48:21.956Z,88.42
2018-12-31T05:50:54.091Z,88.43
2018-12-31T05:53:25.639Z,88.41
2018-12-31T05:55:59.279Z,88.40
2018-12-31T05:58:30.097Z,88.40
2018-12-31T06:01:01.756Z,88.40
2018-12-31T06:03:32.870Z,88.38
2018-12-31T06:06:03.677Z,88.39
2018-12-31T06:08:34.925Z,88.38
2018-12-31T06:11:08.501Z,88.36
2018-12-31T06:13:39.916Z,88.35
2018-12-31T06:16:10.495Z,88.34
2018-12-31T06:18:42.882Z,88.32
2018-12-31T06:21:16.251Z,88.34
2018-12-31T06:23:46.793Z,88.34
2018-12-31T06:26:20.960Z,88.33
2018-12-31T06:28:52.304Z,88.36
2018-12-31T06:31:22.993Z,88.34
2018-12-31T06:33:53.841Z,88.33
2018-12-31T06:36:26.047Z,88.31
2018-12-31T06:38:56.794Z,88.33
2018-12-31T06:41:27.913Z,88.35
2018-12-31T06:44:03.523Z,88.32
2018-12-31T06:46:34.516Z,88.36
2018-12-31T06:49:05.552Z,88.37
2018-12-31T06:51:39.171Z,88.40
2018-12-31T06:54:11.729Z,88.40
2018-12-31T06:56:42.380Z,88.42
2018-12-31T06:59:13.509Z,88.43
2018-12-31T07:01:44.439Z,88.46
2018-12-31T07:04:15.006Z,88.46
2018-12-31T07:06:45.418Z,88.46
2018-12-31T07:09:16.598Z,88.47
2018-12-31T07:11:49.298Z,88.48
2018-12-31T07:14:19.938Z,88.45
2018-12-31T07:16:50.564Z,88.46
2018-12-31T07:19:21.596Z,88.47
2018-12-31T07:21:55.197Z,88.46
2018-12-31T07:24:28.446Z,88.49
2018-12-31T07:26:58.609Z,88.51
2018-12-31T07:29:30.620Z,88.51
2018-12-31T07:32:16.525Z,88.52
2018-12-31T07:34:51.488Z,88.55
2018-12-31T07:37:26.723Z,88.49
2018-12-31T07:40:01.155Z,88.56
2018-12-31T07:42:33.316Z,88.60
2018-12-31T07:45:06.895Z,88.62
2018-12-31T07:47:41.856Z,88.65
2018-12-31T07:50:15.293Z,88.67
2018-12-31T07:52:49.945Z,88.67
2018-12-31T07:55:21.654Z,88.69
2018-12-31T07:58:01.441Z,88.71
2018-12-31T08:00:33.849Z,88.71
2018-12-31T08:03:10.330Z,88.74
2018-12-31T08:05:43.843Z,88.75
2018-12-31T08:08:19.602Z,88.73
2018-12-31T08:10:58.870Z,88.76
2018-12-31T08:13:31.436Z,88.78
2018-12-31T08:16:03.010Z,88.77
2018-12-31T08:18:35.514Z,88.82
2018-12-31T08:21:07.803Z,88.83
2018-12-31T08:23:38.736Z,88.85
2018-12-31T08:26:09.896Z,88.86
2018-12-31T08:28:43.087Z,88.85
2018-12-31T08:31:16.289Z,88.89
2018-12-31T08:33:48.395Z,88.92
2018-12-31T08:36:22.795Z,88.95
2018-12-31T08:39:00.654Z,88.96
2018-12-31T08:41:36.194Z,88.94
2018-12-31T08:44:21.735Z,88.98
2018-12-31T08:46:53.664Z,88.97
2018-12-31T08:49:29.940Z,88.98
2018-12-31T08:52:04.016Z,89.03
2018-12-31T08:54:44.697Z,89.01
2018-12-31T08:57:18.379Z,89.02
2018-12-31T08:59:55.413Z,89.05
2018-12-31T09:02:29.638Z,89.05
2018-12-31T09:05:02.368Z,89.07
2018-12-31T09:07:34.605Z,89.08
2018-12-31T09:10:14.708Z,89.10
2018-12-31T09:12:47.230Z,89.11
2018-12-31T09:15:37.944Z,89.11
2018-12-31T09:18:17.791Z,89.12
2018-12-31T09:20:56.748Z,89.14
2018-12-31T09:23:33.196Z,89.15
2018-12-31T09:26:08.967Z,89.13
2018-12-31T09:28:40.691Z,89.15
2018-12-31T09:31:21.527Z,89.16
2018-12-31T09:34:08.627Z,89.15
2018-12-31T09:36:44.080Z,89.19
2018-12-31T09:39:21.486Z,89.19
2018-12-31T09:41:58.391Z,89.22
2018-12-31T09:44:31.104Z,89.26
2018-12-31T09:47:05.476Z,89.26
2018-12-31T09:49:50.406Z,89.27
2018-12-31T09:52:39.519Z,89.29
2018-12-31T09:55:52.744Z,89.29
2018-12-31T09:58:30.474Z,89.29
2018-12-31T10:01:10.921Z,89.26
2018-12-31T10:04:09.082Z,89.37
2018-12-31T10:09:41.205Z,89.39
2018-12-31T10:12:18.364Z,89.41
2018-12-31T10:14:56.221Z,89.39
2018-12-31T10:17:36.070Z,89.37
2018-12-31T10:20:15.550Z,89.39
2018-12-31T10:22:50.432Z,89.38
2018-12-31T10:25:30.323Z,89.38
2018-12-31T10:28:09.512Z,89.39
2018-12-31T10:30:43.493Z,89.38
2018-12-31T10:33:20.537Z,89.39
2018-12-31T10:35:54.845Z,89.31
2018-12-31T10:38:32.925Z,89.39
2018-12-31T10:41:18.205Z,89.39
2018-12-31T10:43:55.527Z,89.39
2018-12-31T10:46:28.936Z,89.38
2018-12-31T10:49:05.172Z,89.32
2018-12-31T10:51:38.803Z,89.40
2018-12-31T10:54:31.383Z,89.41
2018-12-31T10:57:12.106Z,89.39
2018-12-31T11:00:02.786Z,89.38
2018-12-31T11:02:42.487Z,89.38
2018-12-31T11:05:21.387Z,89.38
2018-12-31T11:08:13.565Z,89.38
2018-12-31T11:10:47.846Z,89.38
2018-12-31T11:13:28.275Z,89.40
2018-12-31T11:16:05.725Z,89.30
2018-12-31T11:21:36.493Z,89.41
2018-12-31T11:24:08.508Z,89.39
2018-12-31T11:26:48.778Z,89.39
2018-12-31T11:29:19.736Z,89.42
2018-12-31T11:31:54.098Z,89.41
2018-12-31T11:34:31.515Z,89.40
2018-12-31T11:37:34.738Z,89.41
2018-12-31T11:42:50.551Z,89.43
2018-12-31T11:45:49.344Z,89.43
2018-12-31T11:48:32.583Z,89.44
2018-12-31T11:51:14.922Z,89.45
2018-12-31T11:54:18.015Z,89.43
2018-12-31T11:57:12.057Z,89.45
2018-12-31T11:59:52.376Z,89.46
2018-12-31T12:02:57.347Z,89.45
2018-12-31T12:05:37.202Z,89.47
2018-12-31T12:11:30.723Z,89.48
2018-12-31T12:15:37.282Z,89.48
2018-12-31T12:18:31.550Z,89.49
2018-12-31T12:22:11.492Z,89.50
2018-12-31T12:25:48.722Z,89.52
2018-12-31T12:27:52.704Z,89.53
2018-12-31T12:30:42.847Z,89.50
2018-12-31T12:38:01.500Z,89.54
2018-12-31T12:49:30.832Z,89.56
2018-12-31T12:51:59.324Z,89.56
2018-12-31T12:54:54.497Z,89.56
2018-12-31T12:57:41.867Z,89.57
2018-12-31T13:00:39.498Z,89.58
2018-12-31T13:03:47.061Z,89.59
2018-12-31T13:06:49.001Z,89.59
2018-12-31T13:09:33.432Z,89.58
2018-12-31T13:34:17.145Z,89.64
2018-12-31T13:36:47.476Z,89.63
2018-12-31T13:39:18.271Z,89.63
2018-12-31T13:41:48.883Z,89.63
2018-12-31T13:44:21.135Z,89.65
2018-12-31T13:46:51.478Z,89.65
2018-12-31T13:49:22.269Z,89.67
2018-12-31T13:52:11.871Z,89.66
2018-12-31T13:55:01.327Z,89.65
2018-12-31T14:00:40.253Z,89.67
2018-12-31T14:03:17.046Z,89.67
2018-12-31T14:06:11.263Z,89.69
2018-12-31T14:08:41.594Z,89.67
2018-12-31T14:11:11.946Z,89.68
2018-12-31T14:13:42.431Z,89.68
2018-12-31T14:16:19.821Z,89.68
2018-12-31T14:18:50.197Z,89.69
2018-12-31T14:21:20.680Z,89.69
2018-12-31T14:23:50.938Z,89.70
2018-12-31T14:26:21.257Z,89.69
2018-12-31T14:28:53.720Z,89.71
2018-12-31T14:31:43.365Z,89.71
2018-12-31T14:34:32.840Z,89.72
2018-12-31T14:37:03.166Z,89.73
2018-12-31T14:39:33.599Z,89.72
2018-12-31T14:42:03.937Z,89.72
2018-12-31T14:44:34.619Z,89.74
2018-12-31T14:47:04.940Z,89.72
2018-12-31T14:49:35.563Z,89.73
2018-12-31T14:52:06.222Z,89.74
2018-12-31T14:54:36.514Z,89.74
2018-12-31T14:57:07.022Z,89.74
2018-12-31T15:02:41.003Z,89.76
2018-12-31T15:08:08.672Z,89.76
2018-12-31T15:09:31.690Z,89.76
2018-12-31T15:11:00.473Z,89.77
2018-12-31T15:13:32.912Z,89.76
2018-12-31T15:16:18.218Z,89.77
2018-12-31T15:18:44.608Z,89.76
2018-12-31T15:21:15.101Z,89.76
2018-12-31T15:23:47.139Z,89.80
2018-12-31T15:26:17.644Z,89.81
2018-12-31T15:28:48.032Z,89.79
2018-12-31T15:31:18.556Z,89.78
2018-12-31T15:33:48.908Z,89.77
2018-12-31T15:36:27.606Z,89.79
2018-12-31T15:38:58.170Z,89.78
2018-12-31T15:41:28.389Z,89.79
2018-12-31T15:43:58.759Z,89.79
2018-12-31T15:46:44.010Z,89.77
2018-12-31T15:49:12.173Z,89.78
2018-12-31T15:51:42.750Z,89.79
2018-12-31T15:54:13.091Z,89.79
2018-12-31T15:56:43.383Z,89.79
2018-12-31T15:59:13.890Z,89.79
2018-12-31T16:01:44.209Z,89.80
2018-12-31T16:04:14.526Z,89.79
2018-12-31T16:06:57.851Z,89.80
2018-12-31T16:09:28.169Z,89.83
2018-12-31T16:11:58.505Z,89.81
2018-12-31T16:14:28.833Z,89.82
2018-12-31T16:17:05.328Z,89.82
2018-12-31T16:19:35.664Z,89.80
2018-12-31T16:22:05.975Z,89.80
2018-12-31T16:24:36.579Z,89.79
2018-12-31T16:27:06.905Z,89.81
2018-12-31T16:29:37.216Z,89.80
2018-12-31T16:32:13.328Z,89.81
2018-12-31T16:34:48.050Z,89.81
2018-12-31T16:37:18.308Z,89.82
2018-12-31T16:39:48.566Z,89.81
2018-12-31T16:42:18.966Z,89.81
2018-12-31T16:44:49.292Z,89.83
2018-12-31T16:47:41.134Z,89.83
2018-12-31T16:50:11.518Z,89.83
2018-12-31T16:52:41.833Z,89.82
2018-12-31T16:55:12.298Z,89.83
2018-12-31T16:57:42.904Z,89.83
2018-12-31T17:00:23.705Z,89.84
2018-12-31T17:02:54.190Z,89.84
2018-12-31T17:05:24.512Z,89.84
2018-12-31T17:07:56.336Z,89.84
2018-12-31T17:10:26.953Z,89.84
2018-12-31T17:12:59.018Z,89.83
2018-12-31T17:15:36.103Z,89.85
2018-12-31T17:18:25.519Z,89.85
2018-12-31T17:20:55.860Z,89.86
2018-12-31T17:23:28.837Z,89.85
2018-12-31T17:25:59.431Z,89.87
2018-12-31T17:28:42.339Z,89.85
2018-12-31T17:31:14.941Z,89.85
2018-12-31T17:33:45.297Z,89.86
2018-12-31T17:36:15.591Z,89.84
2018-12-31T17:38:45.922Z,89.86
2018-12-31T17:41:16.238Z,89.84
2018-12-31T17:43:46.533Z,89.87
2018-12-31T17:46:29.976Z,89.86
2018-12-31T17:49:00.444Z,89.89
2018-12-31T17:51:30.788Z,89.86
2018-12-31T17:54:01.231Z,89.86
2018-12-31T17:56:31.596Z,89.88
2018-12-31T17:59:43.639Z,89.87
2018-12-31T18:02:12.210Z,89.87
2018-12-31T18:04:53.716Z,89.88
2018-12-31T18:07:25.652Z,89.88
2018-12-31T18:09:56.013Z,89.89
2018-12-31T18:12:26.276Z,89.89
2018-12-31T18:15:26.851Z,89.88
2018-12-31T18:18:06.673Z,89.89
2018-12-31T18:20:45.856Z,89.87
2018-12-31T18:23:47.677Z,89.88
2018-12-31T18:26:35.642Z,89.90
2018-12-31T18:29:31.016Z,89.89
2018-12-31T18:32:18.402Z,89.89
2018-12-31T18:34:58.902Z,89.90
2018-12-31T18:37:58.831Z,89.92
2018-12-31T18:40:35.539Z,89.89
2018-12-31T18:43:37.874Z,89.90
2018-12-31T18:46:27.537Z,89.92
2018-12-31T18:49:20.829Z,89.90
2018-12-31T18:52:03.025Z,89.91
2018-12-31T18:54:36.063Z,89.92
2018-12-31T18:57:13.296Z,89.91
2018-12-31T18:59:56.001Z,89.91
2018-12-31T19:02:41.792Z,89.90
2018-12-31T19:05:11.237Z,89.92
2018-12-31T19:08:12.114Z,89.93
2018-12-31T19:11:22.322Z,89.92
2018-12-31T19:14:00.197Z,89.93
2018-12-31T19:16:39.895Z,89.93
2018-12-31T19:19:17.584Z,89.95
2018-12-31T19:21:55.592Z,89.94
2018-12-31T19:24:39.452Z,89.95
2018-12-31T19:27:14.643Z,89.94
2018-12-31T19:29:45.569Z,89.95
2018-12-31T19:32:21.367Z,89.94
2018-12-31T19:34:57.702Z,89.96
2018-12-31T19:37:40.113Z,89.97
2018-12-31T19:40:18.544Z,89.97
2018-12-31T19:42:53.733Z,89.93
2018-12-31T19:45:29.045Z,89.97
2018-12-31T19:48:03.514Z,89.95
2018-12-31T19:50:40.326Z,89.98
2018-12-31T19:53:09.987Z,89.99
2018-12-31T19:55:44.645Z,89.97
2018-12-31T20:01:00.929Z,89.91
2018-12-31T20:03:34.631Z,89.98
2018-12-31T20:06:11.101Z,89.99
2018-12-31T20:09:00.336Z,89.97
2018-12-31T20:11:46.463Z,89.99
2018-12-31T20:14:17.573Z,90.00
2018-12-31T20:16:50.840Z,90.02
2018-12-31T20:19:54.611Z,90.02
2018-12-31T20:22:54.588Z,90.00
2018-12-31T20:25:32.347Z,90.02
2018-12-31T20:32:08.145Z,90.00
2018-12-31T20:34:54.477Z,90.04
2018-12-31T20:37:58.091Z,90.05
2018-12-31T20:52:18.149Z,90.07
2018-12-31T20:59:26.467Z,90.08
2018-12-31T21:02:49.271Z,90.05
2018-12-31T21:06:20.093Z,90.08
2018-12-31T21:09:53.164Z,90.11
2018-12-31T21:13:20.320Z,90.09
2018-12-31T21:17:07.532Z,90.10
2018-12-31T21:23:29.229Z,90.11
2018-12-31T21:26:29.954Z,90.12
2018-12-31T21:29:01.962Z,90.14
2018-12-31T21:34:29.879Z,90.15
2018-12-31T21:37:00.472Z,90.15
2018-12-31T21:39:30.948Z,90.14
2018-12-31T21:42:01.416Z,90.16
2018-12-31T21:44:32.198Z,90.17
2018-12-31T21:47:06.164Z,90.16
2018-12-31T21:49:36.550Z,90.18
2018-12-31T21:52:06.902Z,90.17
2018-12-31T21:54:37.727Z,90.17
2018-12-31T21:59:53.367Z,90.19
2018-12-31T22:02:27.489Z,90.19
2018-12-31T22:04:58.220Z,90.19
2018-12-31T22:07:29.191Z,90.20
2018-12-31T22:10:02.049Z,90.20
2018-12-31T22:12:32.428Z,90.20
2018-12-31T22:15:32.635Z,90.21
2018-12-31T22:18:12.030Z,90.22
2018-12-31T22:20:42.770Z,90.21
2018-12-31T22:23:13.435Z,90.21
2018-12-31T22:29:24.011Z,90.22
2018-12-31T22:31:59.109Z,90.23
2018-12-31T22:34:30.247Z,90.23
2018-12-31T22:37:36.127Z,90.24
2018-12-31T22:40:02.108Z,90.25
2018-12-31T22:45:25.220Z,90.25
2018-12-31T22:47:56.483Z,90.26
2018-12-31T22:50:26.843Z,90.28
2018-12-31T22:58:13.808Z,90.27
2018-12-31T23:03:50.741Z,90.26
2018-12-31T23:06:21.573Z,90.29
2018-12-31T23:08:52.011Z,90.28
2018-12-31T23:11:22.482Z,90.28
2018-12-31T23:13:53.436Z,90.29
2018-12-31T23:16:26.286Z,90.29
2018-12-31T23:18:56.786Z,90.31
2018-12-31T23:21:46.508Z,90.31
2018-12-31T23:24:29.315Z,90.31
2018-12-31T23:26:58.157Z,90.31
2018-12-31T23:29:40.307Z,90.33
2018-12-31T23:32:12.969Z,90.33
2018-12-31T23:34:43.337Z,90.31
2018-12-31T23:42:44.306Z,90.33
2018-12-31T23:48:27.087Z,90.36
2018-12-31T23:50:58.784Z,90.36
2018-12-31T23:53:29.319Z,90.35
2018-12-31T23:55:59.772Z,90.37
2018-12-31T23:58:30.086Z,90.37
